sensor_id;sensor_type;location;lat;lon;timestamp;temperature;humidity
32769;DHT22;23049;54.304;8.826;2023-04-03T00:00:46;0.90;99.90
32769;DHT22;23049;54.304;8.826;2023-04-03T00:03:12;0.90;99.90
32769;DHT22;23049;54.304;8.826;2023-04-03T00:05:37;1.00;99.90
32769;DHT22;23049;54.304;8.826;2023-04-03T00:08:03;1.20;99.90
32769;DHT22;23049;54.304;8.826;2023-04-03T00:10:29;1.30;99.90
32769;DHT22;23049;54.304;8.826;2023-04-03T00:12:55;1.30;99.90
32769;DHT22;23049;54.304;8.826;2023-04-03T00:15:20;1.30;99.90
32769;DHT22;23049;54.304;8.826;2023-04-03T00:17:46;1.40;99.90
32769;DHT22;23049;54.304;8.826;2023-04-03T00:20:12;1.20;99.90
32769;DHT22;23049;54.304;8.826;2023-04-03T00:22:37;1.00;99.90
32769;DHT22;23049;54.304;8.826;2023-04-03T00:25:03;0.90;99.90
32769;DHT22;23049;54.304;8.826;2023-04-03T00:27:28;1.00;99.90
32769;DHT22;23049;54.304;8.826;2023-04-03T00:29:54;1.10;99.90
32769;DHT22;23049;54.304;8.826;2023-04-03T00:32:19;1.00;99.90
32769;DHT22;23049;54.304;8.826;2023-04-03T00:34:45;0.80;99.90
32769;DHT22;23049;54.304;8.826;2023-04-03T00:37:10;0.90;99.90
32769;DHT22;23049;54.304;8.826;2023-04-03T00:39:36;1.00;99.90
32769;DHT22;23049;54.304;8.826;2023-04-03T00:42:01;1.00;99.90
32769;DHT22;23049;54.304;8.826;2023-04-03T00:46:52;1.00;99.90
32769;DHT22;23049;54.304;8.826;2023-04-03T00:49:18;1.00;99.90
32769;DHT22;23049;54.304;8.826;2023-04-03T00:51:43;1.00;99.90
32769;DHT22;23049;54.304;8.826;2023-04-03T00:54:09;0.90;99.90
32769;DHT22;23049;54.304;8.826;2023-04-03T00:56:35;0.80;99.90
32769;DHT22;23049;54.304;8.826;2023-04-03T00:59:03;0.80;99.90
32769;DHT22;23049;54.304;8.826;2023-04-03T01:01:29;0.80;99.90
32769;DHT22;23049;54.304;8.826;2023-04-03T01:03:56;0.80;99.90
32769;DHT22;23049;54.304;8.826;2023-04-03T01:06:26;0.70;99.90
32769;DHT22;23049;54.304;8.826;2023-04-03T01:08:52;0.60;99.90
32769;DHT22;23049;54.304;8.826;2023-04-03T01:11:18;0.70;99.90
32769;DHT22;23049;54.304;8.826;2023-04-03T01:13:44;0.60;99.90
32769;DHT22;23049;54.304;8.826;2023-04-03T01:16:09;0.50;99.90
32769;DHT22;23049;54.304;8.826;2023-04-03T01:18:36;0.50;99.90
32769;DHT22;23049;54.304;8.826;2023-04-03T01:23:39;0.50;99.90
32769;DHT22;23049;54.304;8.826;2023-04-03T01:26:07;0.60;99.90
32769;DHT22;23049;54.304;8.826;2023-04-03T01:28:35;0.50;99.90
32769;DHT22;23049;54.304;8.826;2023-04-03T01:33:35;0.50;99.90
32769;DHT22;23049;54.304;8.826;2023-04-03T01:36:02;0.50;99.90
32769;DHT22;23049;54.304;8.826;2023-04-03T01:38:28;0.40;99.90
32769;DHT22;23049;54.304;8.826;2023-04-03T01:40:53;0.40;99.90
32769;DHT22;23049;54.304;8.826;2023-04-03T01:43:19;0.40;99.90
32769;DHT22;23049;54.304;8.826;2023-04-03T01:45:44;0.40;99.90
32769;DHT22;23049;54.304;8.826;2023-04-03T01:48:11;0.40;99.90
32769;DHT22;23049;54.304;8.826;2023-04-03T01:50:37;0.40;99.90
32769;DHT22;23049;54.304;8.826;2023-04-03T01:53:02;0.40;99.90
32769;DHT22;23049;54.304;8.826;2023-04-03T01:55:28;0.30;99.90
32769;DHT22;23049;54.304;8.826;2023-04-03T01:57:53;0.20;99.90
32769;DHT22;23049;54.304;8.826;2023-04-03T02:00:19;0.20;99.90
32769;DHT22;23049;54.304;8.826;2023-04-03T02:02:45;0.20;99.90
32769;DHT22;23049;54.304;8.826;2023-04-03T02:05:10;0.20;99.90
32769;DHT22;23049;54.304;8.826;2023-04-03T02:07:36;0.20;99.90
32769;DHT22;23049;54.304;8.826;2023-04-03T02:10:01;0.10;99.90
32769;DHT22;23049;54.304;8.826;2023-04-03T02:12:27;0.00;99.90
32769;DHT22;23049;54.304;8.826;2023-04-03T02:14:52;0.00;99.90
32769;DHT22;23049;54.304;8.826;2023-04-03T02:17:18;-0.10;99.90
32769;DHT22;23049;54.304;8.826;2023-04-03T02:19:43;-0.20;99.90
32769;DHT22;23049;54.304;8.826;2023-04-03T02:22:09;-0.40;99.90
32769;DHT22;23049;54.304;8.826;2023-04-03T02:24:34;-0.50;99.90
32769;DHT22;23049;54.304;8.826;2023-04-03T02:27:00;-0.60;99.90
32769;DHT22;23049;54.304;8.826;2023-04-03T02:29:26;-0.60;99.90
32769;DHT22;23049;54.304;8.826;2023-04-03T02:31:51;-0.70;99.90
32769;DHT22;23049;54.304;8.826;2023-04-03T02:34:17;-0.70;99.90
32769;DHT22;23049;54.304;8.826;2023-04-03T02:36:42;-0.90;99.90
32769;DHT22;23049;54.304;8.826;2023-04-03T02:39:08;-0.80;99.90
32769;DHT22;23049;54.304;8.826;2023-04-03T02:41:33;-0.60;99.90
32769;DHT22;23049;54.304;8.826;2023-04-03T02:44:01;-0.40;99.90
32769;DHT22;23049;54.304;8.826;2023-04-03T02:46:27;-0.30;99.90
32769;DHT22;23049;54.304;8.826;2023-04-03T02:48:52;-0.30;99.90
32769;DHT22;23049;54.304;8.826;2023-04-03T02:51:18;-0.30;99.90
32769;DHT22;23049;54.304;8.826;2023-04-03T02:53:43;0.00;99.90
32769;DHT22;23049;54.304;8.826;2023-04-03T02:56:08;0.20;99.90
32769;DHT22;23049;54.304;8.826;2023-04-03T02:58:34;0.40;99.90
32769;DHT22;23049;54.304;8.826;2023-04-03T03:01:00;0.30;99.90
32769;DHT22;23049;54.304;8.826;2023-04-03T03:03:26;0.30;99.90
32769;DHT22;23049;54.304;8.826;2023-04-03T03:06:02;0.20;99.90
32769;DHT22;23049;54.304;8.826;2023-04-03T03:08:27;0.20;99.90
32769;DHT22;23049;54.304;8.826;2023-04-03T03:10:53;0.20;99.90
32769;DHT22;23049;54.304;8.826;2023-04-03T03:13:18;0.20;99.90
32769;DHT22;23049;54.304;8.826;2023-04-03T03:15:44;0.20;99.90
32769;DHT22;23049;54.304;8.826;2023-04-03T03:18:09;0.30;99.90
32769;DHT22;23049;54.304;8.826;2023-04-03T03:20:35;0.30;99.90
32769;DHT22;23049;54.304;8.826;2023-04-03T03:23:00;0.10;99.90
32769;DHT22;23049;54.304;8.826;2023-04-03T03:25:26;0.10;99.90
32769;DHT22;23049;54.304;8.826;2023-04-03T03:27:51;0.00;99.90
32769;DHT22;23049;54.304;8.826;2023-04-03T03:30:17;-0.30;99.90
32769;DHT22;23049;54.304;8.826;2023-04-03T03:32:42;-0.20;99.90
32769;DHT22;23049;54.304;8.826;2023-04-03T03:35:08;-0.30;99.90
32769;DHT22;23049;54.304;8.826;2023-04-03T03:37:33;-0.50;99.90
32769;DHT22;23049;54.304;8.826;2023-04-03T03:39:59;-0.60;99.90
32769;DHT22;23049;54.304;8.826;2023-04-03T03:42:25;-0.70;99.90
32769;DHT22;23049;54.304;8.826;2023-04-03T03:44:50;-0.50;99.90
32769;DHT22;23049;54.304;8.826;2023-04-03T03:47:17;-0.60;99.90
32769;DHT22;23049;54.304;8.826;2023-04-03T03:49:42;-0.70;99.90
32769;DHT22;23049;54.304;8.826;2023-04-03T03:52:08;-0.80;99.90
32769;DHT22;23049;54.304;8.826;2023-04-03T03:54:36;-0.90;99.90
32769;DHT22;23049;54.304;8.826;2023-04-03T03:57:01;-1.00;99.90
32769;DHT22;23049;54.304;8.826;2023-04-03T03:59:27;-1.20;99.90
32769;DHT22;23049;54.304;8.826;2023-04-03T04:01:52;-1.20;99.90
32769;DHT22;23049;54.304;8.826;2023-04-03T04:04:18;-1.20;99.90
32769;DHT22;23049;54.304;8.826;2023-04-03T04:06:43;-1.20;99.90
32769;DHT22;23049;54.304;8.826;2023-04-03T04:09:09;-1.20;99.90
32769;DHT22;23049;54.304;8.826;2023-04-03T04:11:34;-1.00;99.90
32769;DHT22;23049;54.304;8.826;2023-04-03T04:14:00;-0.90;99.90
32769;DHT22;23049;54.304;8.826;2023-04-03T04:16:25;-1.00;99.90
32769;DHT22;23049;54.304;8.826;2023-04-03T04:18:51;-1.10;99.90
32769;DHT22;23049;54.304;8.826;2023-04-03T04:21:16;-1.10;99.90
32769;DHT22;23049;54.304;8.826;2023-04-03T04:23:42;-1.10;99.90
32769;DHT22;23049;54.304;8.826;2023-04-03T04:26:07;-1.00;99.90
32769;DHT22;23049;54.304;8.826;2023-04-03T04:28:33;-1.00;99.90
32769;DHT22;23049;54.304;8.826;2023-04-03T04:30:58;-0.90;99.90
32769;DHT22;23049;54.304;8.826;2023-04-03T04:33:24;-1.00;99.90
32769;DHT22;23049;54.304;8.826;2023-04-03T04:35:49;-0.90;99.90
32769;DHT22;23049;54.304;8.826;2023-04-03T04:38:15;-0.80;99.90
32769;DHT22;23049;54.304;8.826;2023-04-03T04:40:40;-0.90;99.90
32769;DHT22;23049;54.304;8.826;2023-04-03T04:43:06;-1.00;99.90
32769;DHT22;23049;54.304;8.826;2023-04-03T04:45:32;-1.00;99.90
32769;DHT22;23049;54.304;8.826;2023-04-03T04:47:57;-0.80;99.90
32769;DHT22;23049;54.304;8.826;2023-04-03T04:50:23;-0.90;99.90
32769;DHT22;23049;54.304;8.826;2023-04-03T04:52:48;-0.80;99.90
32769;DHT22;23049;54.304;8.826;2023-04-03T04:55:14;-0.60;99.90
32769;DHT22;23049;54.304;8.826;2023-04-03T04:57:39;-0.70;99.90
32769;DHT22;23049;54.304;8.826;2023-04-03T05:00:06;-0.50;99.90
32769;DHT22;23049;54.304;8.826;2023-04-03T05:02:32;-0.20;99.90
32769;DHT22;23049;54.304;8.826;2023-04-03T05:04:58;0.20;99.90
32769;DHT22;23049;54.304;8.826;2023-04-03T05:07:23;0.60;99.90
32769;DHT22;23049;54.304;8.826;2023-04-03T05:09:49;0.80;99.90
32769;DHT22;23049;54.304;8.826;2023-04-03T05:12:15;1.00;99.90
32769;DHT22;23049;54.304;8.826;2023-04-03T05:14:41;1.30;99.90
32769;DHT22;23049;54.304;8.826;2023-04-03T05:17:06;1.50;99.90
32769;DHT22;23049;54.304;8.826;2023-04-03T05:19:32;1.90;99.90
32769;DHT22;23049;54.304;8.826;2023-04-03T05:21:57;2.30;99.90
32769;DHT22;23049;54.304;8.826;2023-04-03T05:24:23;2.60;99.90
32769;DHT22;23049;54.304;8.826;2023-04-03T05:26:48;3.00;99.90
32769;DHT22;23049;54.304;8.826;2023-04-03T05:29:14;3.50;99.90
32769;DHT22;23049;54.304;8.826;2023-04-03T05:31:40;3.90;99.90
32769;DHT22;23049;54.304;8.826;2023-04-03T05:34:05;4.20;99.90
32769;DHT22;23049;54.304;8.826;2023-04-03T05:36:31;4.70;99.90
32769;DHT22;23049;54.304;8.826;2023-04-03T05:38:56;5.40;99.90
32769;DHT22;23049;54.304;8.826;2023-04-03T05:41:22;5.70;99.90
32769;DHT22;23049;54.304;8.826;2023-04-03T05:43:47;6.00;99.90
32769;DHT22;23049;54.304;8.826;2023-04-03T05:46:17;6.30;99.90
32769;DHT22;23049;54.304;8.826;2023-04-03T05:48:43;6.70;99.90
32769;DHT22;23049;54.304;8.826;2023-04-03T05:51:19;7.00;99.90
32769;DHT22;23049;54.304;8.826;2023-04-03T05:53:45;7.40;99.90
32769;DHT22;23049;54.304;8.826;2023-04-03T05:56:11;8.20;99.90
32769;DHT22;23049;54.304;8.826;2023-04-03T05:58:37;9.00;99.90
32769;DHT22;23049;54.304;8.826;2023-04-03T06:01:03;9.30;99.90
32769;DHT22;23049;54.304;8.826;2023-04-03T06:03:28;9.40;99.90
32769;DHT22;23049;54.304;8.826;2023-04-03T06:05:54;9.70;99.90
32769;DHT22;23049;54.304;8.826;2023-04-03T06:08:20;10.10;99.90
32769;DHT22;23049;54.304;8.826;2023-04-03T06:10:45;10.50;99.90
32769;DHT22;23049;54.304;8.826;2023-04-03T06:13:11;10.80;99.90
32769;DHT22;23049;54.304;8.826;2023-04-03T06:15:37;10.90;99.90
32769;DHT22;23049;54.304;8.826;2023-04-03T06:18:04;11.30;99.90
32769;DHT22;23049;54.304;8.826;2023-04-03T06:20:30;11.30;99.90
32769;DHT22;23049;54.304;8.826;2023-04-03T06:22:56;11.30;99.90
32769;DHT22;23049;54.304;8.826;2023-04-03T06:25:22;11.50;99.90
32769;DHT22;23049;54.304;8.826;2023-04-03T06:27:48;11.70;99.90
32769;DHT22;23049;54.304;8.826;2023-04-03T06:30:13;11.60;99.90
32769;DHT22;23049;54.304;8.826;2023-04-03T06:32:39;11.60;99.90
32769;DHT22;23049;54.304;8.826;2023-04-03T06:35:05;11.30;99.90
32769;DHT22;23049;54.304;8.826;2023-04-03T06:37:30;11.30;99.90
32769;DHT22;23049;54.304;8.826;2023-04-03T06:39:57;11.40;99.90
32769;DHT22;23049;54.304;8.826;2023-04-03T06:42:23;11.50;99.90
32769;DHT22;23049;54.304;8.826;2023-04-03T06:44:49;11.30;99.90
32769;DHT22;23049;54.304;8.826;2023-04-03T06:47:15;11.20;99.90
32769;DHT22;23049;54.304;8.826;2023-04-03T06:49:41;10.70;99.90
32769;DHT22;23049;54.304;8.826;2023-04-03T06:52:07;10.60;99.90
32769;DHT22;23049;54.304;8.826;2023-04-03T06:54:32;10.60;99.90
32769;DHT22;23049;54.304;8.826;2023-04-03T06:56:58;10.80;99.90
32769;DHT22;23049;54.304;8.826;2023-04-03T06:59:23;11.00;99.90
32769;DHT22;23049;54.304;8.826;2023-04-03T07:01:49;11.30;99.90
32769;DHT22;23049;54.304;8.826;2023-04-03T07:04:15;11.40;99.90
32769;DHT22;23049;54.304;8.826;2023-04-03T07:06:41;11.50;99.90
32769;DHT22;23049;54.304;8.826;2023-04-03T07:09:08;11.60;99.90
32769;DHT22;23049;54.304;8.826;2023-04-03T07:11:34;11.90;99.90
32769;DHT22;23049;54.304;8.826;2023-04-03T07:13:59;12.10;99.90
32769;DHT22;23049;54.304;8.826;2023-04-03T07:16:25;11.90;99.90
32769;DHT22;23049;54.304;8.826;2023-04-03T07:18:51;12.00;99.90
32769;DHT22;23049;54.304;8.826;2023-04-03T07:21:16;11.60;99.90
32769;DHT22;23049;54.304;8.826;2023-04-03T07:23:42;11.60;99.90
32769;DHT22;23049;54.304;8.826;2023-04-03T07:26:07;11.20;99.90
32769;DHT22;23049;54.304;8.826;2023-04-03T07:28:33;10.50;99.90
32769;DHT22;23049;54.304;8.826;2023-04-03T07:31:00;9.60;99.90
32769;DHT22;23049;54.304;8.826;2023-04-03T07:33:26;9.40;99.90
32769;DHT22;23049;54.304;8.826;2023-04-03T07:35:51;9.00;99.90
32769;DHT22;23049;54.304;8.826;2023-04-03T07:38:17;8.10;99.90
32769;DHT22;23049;54.304;8.826;2023-04-03T07:40:50;8.00;99.90
32769;DHT22;23049;54.304;8.826;2023-04-03T07:43:16;8.00;99.90
32769;DHT22;23049;54.304;8.826;2023-04-03T07:45:41;7.80;99.90
32769;DHT22;23049;54.304;8.826;2023-04-03T07:48:07;7.40;99.90
32769;DHT22;23049;54.304;8.826;2023-04-03T07:50:32;7.10;99.90
32769;DHT22;23049;54.304;8.826;2023-04-03T07:52:58;6.90;99.90
32769;DHT22;23049;54.304;8.826;2023-04-03T07:55:24;6.50;99.90
32769;DHT22;23049;54.304;8.826;2023-04-03T07:57:49;6.30;99.90
32769;DHT22;23049;54.304;8.826;2023-04-03T08:00:16;6.20;99.90
32769;DHT22;23049;54.304;8.826;2023-04-03T08:02:43;6.10;99.90
32769;DHT22;23049;54.304;8.826;2023-04-03T08:05:09;6.00;99.90
32769;DHT22;23049;54.304;8.826;2023-04-03T08:07:36;5.90;99.90
32769;DHT22;23049;54.304;8.826;2023-04-03T08:10:02;5.80;99.90
32769;DHT22;23049;54.304;8.826;2023-04-03T08:12:27;5.80;99.90
32769;DHT22;23049;54.304;8.826;2023-04-03T08:14:55;5.80;99.90
32769;DHT22;23049;54.304;8.826;2023-04-03T08:17:21;5.70;99.90
32769;DHT22;23049;54.304;8.826;2023-04-03T08:19:46;5.70;99.90
32769;DHT22;23049;54.304;8.826;2023-04-03T08:22:12;5.60;99.90
32769;DHT22;23049;54.304;8.826;2023-04-03T08:24:38;5.60;99.90
32769;DHT22;23049;54.304;8.826;2023-04-03T08:27:03;5.70;99.90
32769;DHT22;23049;54.304;8.826;2023-04-03T08:29:29;5.70;99.90
32769;DHT22;23049;54.304;8.826;2023-04-03T08:31:54;5.70;99.90
32769;DHT22;23049;54.304;8.826;2023-04-03T08:34:20;5.70;99.90
32769;DHT22;23049;54.304;8.826;2023-04-03T08:36:46;5.70;99.90
32769;DHT22;23049;54.304;8.826;2023-04-03T08:39:12;5.70;99.90
32769;DHT22;23049;54.304;8.826;2023-04-03T08:41:38;5.80;99.90
32769;DHT22;23049;54.304;8.826;2023-04-03T08:44:13;5.90;99.90
32769;DHT22;23049;54.304;8.826;2023-04-03T08:49:42;5.90;99.90
32769;DHT22;23049;54.304;8.826;2023-04-03T08:52:17;5.90;99.90
32769;DHT22;23049;54.304;8.826;2023-04-03T08:57:16;5.90;99.90
32769;DHT22;23049;54.304;8.826;2023-04-03T08:59:42;5.90;99.90
32769;DHT22;23049;54.304;8.826;2023-04-03T09:02:21;6.10;99.90
32769;DHT22;23049;54.304;8.826;2023-04-03T09:04:48;6.10;99.90
32769;DHT22;23049;54.304;8.826;2023-04-03T09:07:16;6.10;99.90
32769;DHT22;23049;54.304;8.826;2023-04-03T09:09:45;6.10;99.90
32769;DHT22;23049;54.304;8.826;2023-04-03T09:12:23;6.30;99.90
32769;DHT22;23049;54.304;8.826;2023-04-03T09:22:28;6.30;99.90
32769;DHT22;23049;54.304;8.826;2023-04-03T09:25:10;6.40;99.90
32769;DHT22;23049;54.304;8.826;2023-04-03T09:27:37;6.40;99.90
32769;DHT22;23049;54.304;8.826;2023-04-03T09:30:02;6.50;99.90
32769;DHT22;23049;54.304;8.826;2023-04-03T09:32:29;6.50;99.90
32769;DHT22;23049;54.304;8.826;2023-04-03T09:34:57;6.60;99.90
32769;DHT22;23049;54.304;8.826;2023-04-03T09:37:42;6.70;99.90
32769;DHT22;23049;54.304;8.826;2023-04-03T09:42:56;7.00;99.90
32769;DHT22;23049;54.304;8.826;2023-04-03T09:45:23;6.90;99.90
32769;DHT22;23049;54.304;8.826;2023-04-03T09:47:52;6.80;99.90
32769;DHT22;23049;54.304;8.826;2023-04-03T09:50:28;7.10;99.90
32769;DHT22;23049;54.304;8.826;2023-04-03T09:52:54;6.80;99.90
32769;DHT22;23049;54.304;8.826;2023-04-03T09:55:25;6.80;99.90
32769;DHT22;23049;54.304;8.826;2023-04-03T09:57:57;6.70;99.90
32769;DHT22;23049;54.304;8.826;2023-04-03T10:02:54;6.80;99.90
32769;DHT22;23049;54.304;8.826;2023-04-03T10:05:25;6.90;99.90
32769;DHT22;23049;54.304;8.826;2023-04-03T10:07:50;6.90;99.90
32769;DHT22;23049;54.304;8.826;2023-04-03T10:12:43;7.10;99.90
32769;DHT22;23049;54.304;8.826;2023-04-03T10:15:18;7.10;99.90
32769;DHT22;23049;54.304;8.826;2023-04-03T10:26:15;7.30;99.90
32769;DHT22;23049;54.304;8.826;2023-04-03T10:28:32;7.40;99.90
32769;DHT22;23049;54.304;8.826;2023-04-03T10:38:40;7.40;99.90
32769;DHT22;23049;54.304;8.826;2023-04-03T10:41:12;7.40;99.90
32769;DHT22;23049;54.304;8.826;2023-04-03T10:46:20;7.40;99.90
32769;DHT22;23049;54.304;8.826;2023-04-03T10:51:23;7.60;99.90
32769;DHT22;23049;54.304;8.826;2023-04-03T10:54:08;7.60;99.90
32769;DHT22;23049;54.304;8.826;2023-04-03T10:56:45;7.70;99.90
32769;DHT22;23049;54.304;8.826;2023-04-03T11:01:58;7.80;99.90
32769;DHT22;23049;54.304;8.826;2023-04-03T11:04:25;8.00;99.90
32769;DHT22;23049;54.304;8.826;2023-04-03T11:07:10;7.90;99.90
32769;DHT22;23049;54.304;8.826;2023-04-03T11:09:39;8.20;99.90
32769;DHT22;23049;54.304;8.826;2023-04-03T11:12:10;8.20;99.90
32769;DHT22;23049;54.304;8.826;2023-04-03T11:14:37;8.00;99.90
32769;DHT22;23049;54.304;8.826;2023-04-03T11:19:49;8.20;99.90
32769;DHT22;23049;54.304;8.826;2023-04-03T11:22:23;8.30;99.90
32769;DHT22;23049;54.304;8.826;2023-04-03T11:25:22;8.30;99.90
32769;DHT22;23049;54.304;8.826;2023-04-03T11:27:47;8.30;99.90
32769;DHT22;23049;54.304;8.826;2023-04-03T11:30:17;8.40;99.90
32769;DHT22;23049;54.304;8.826;2023-04-03T11:35:18;8.20;99.90
32769;DHT22;23049;54.304;8.826;2023-04-03T11:37:45;8.50;99.90
32769;DHT22;23049;54.304;8.826;2023-04-03T11:47:51;8.20;99.90
32769;DHT22;23049;54.304;8.826;2023-04-03T11:51:00;7.80;99.90
32769;DHT22;23049;54.304;8.826;2023-04-03T12:08:24;8.60;99.90
32769;DHT22;23049;54.304;8.826;2023-04-03T12:11:35;8.30;99.90
32769;DHT22;23049;54.304;8.826;2023-04-03T12:16:20;8.00;99.90
32769;DHT22;23049;54.304;8.826;2023-04-03T12:21:18;8.50;99.90
32769;DHT22;23049;54.304;8.826;2023-04-03T12:29:28;9.40;99.90
32769;DHT22;23049;54.304;8.826;2023-04-03T12:36:59;9.30;99.90
32769;DHT22;23049;54.304;8.826;2023-04-03T12:39:48;8.60;99.90
32769;DHT22;23049;54.304;8.826;2023-04-03T12:45:08;8.30;99.90
32769;DHT22;23049;54.304;8.826;2023-04-03T12:47:35;8.20;99.90
32769;DHT22;23049;54.304;8.826;2023-04-03T12:50:46;8.20;99.90
32769;DHT22;23049;54.304;8.826;2023-04-03T12:53:34;8.20;99.90
32769;DHT22;23049;54.304;8.826;2023-04-03T12:55:40;8.30;99.90
32769;DHT22;23049;54.304;8.826;2023-04-03T12:58:25;8.40;99.90
32769;DHT22;23049;54.304;8.826;2023-04-03T13:01:08;8.50;99.90
32769;DHT22;23049;54.304;8.826;2023-04-03T13:03:35;9.00;99.90
32769;DHT22;23049;54.304;8.826;2023-04-03T13:06:02;9.00;99.90
32769;DHT22;23049;54.304;8.826;2023-04-03T13:08:29;9.10;99.90
32769;DHT22;23049;54.304;8.826;2023-04-03T13:10:58;9.30;99.90
32769;DHT22;23049;54.304;8.826;2023-04-03T13:13:25;9.10;99.90
32769;DHT22;23049;54.304;8.826;2023-04-03T13:15:51;8.70;99.90
32769;DHT22;23049;54.304;8.826;2023-04-03T13:18:21;8.30;99.90
32769;DHT22;23049;54.304;8.826;2023-04-03T13:20:47;8.20;99.90
32769;DHT22;23049;54.304;8.826;2023-04-03T13:23:13;8.00;99.90
32769;DHT22;23049;54.304;8.826;2023-04-03T13:25:43;8.00;99.90
32769;DHT22;23049;54.304;8.826;2023-04-03T13:28:11;8.00;99.90
32769;DHT22;23049;54.304;8.826;2023-04-03T13:30:38;8.00;99.90
32769;DHT22;23049;54.304;8.826;2023-04-03T13:33:05;7.80;99.90
32769;DHT22;23049;54.304;8.826;2023-04-03T13:35:33;8.00;99.90
32769;DHT22;23049;54.304;8.826;2023-04-03T13:38:00;8.40;99.90
32769;DHT22;23049;54.304;8.826;2023-04-03T13:40:26;8.70;99.90
32769;DHT22;23049;54.304;8.826;2023-04-03T13:42:59;8.70;99.90
32769;DHT22;23049;54.304;8.826;2023-04-03T13:45:26;8.90;99.90
32769;DHT22;23049;54.304;8.826;2023-04-03T13:48:05;8.90;99.90
32769;DHT22;23049;54.304;8.826;2023-04-03T13:50:31;8.80;99.90
32769;DHT22;23049;54.304;8.826;2023-04-03T13:53:02;8.50;99.90
32769;DHT22;23049;54.304;8.826;2023-04-03T13:55:29;8.30;99.90
32769;DHT22;23049;54.304;8.826;2023-04-03T14:00:33;8.60;99.90
32769;DHT22;23049;54.304;8.826;2023-04-03T14:03:01;8.80;99.90
32769;DHT22;23049;54.304;8.826;2023-04-03T14:05:26;8.90;99.90
32769;DHT22;23049;54.304;8.826;2023-04-03T14:07:53;9.10;99.90
32769;DHT22;23049;54.304;8.826;2023-04-03T14:10:18;9.30;99.90
32769;DHT22;23049;54.304;8.826;2023-04-03T14:12:44;9.00;99.90
32769;DHT22;23049;54.304;8.826;2023-04-03T14:15:21;8.50;99.90
32769;DHT22;23049;54.304;8.826;2023-04-03T14:17:47;8.40;99.90
32769;DHT22;23049;54.304;8.826;2023-04-03T14:20:16;8.30;99.90
32769;DHT22;23049;54.304;8.826;2023-04-03T14:22:42;8.40;99.90
32769;DHT22;23049;54.304;8.826;2023-04-03T14:25:08;8.50;99.90
32769;DHT22;23049;54.304;8.826;2023-04-03T14:27:34;8.70;99.90
32769;DHT22;23049;54.304;8.826;2023-04-03T14:30:00;8.50;99.90
32769;DHT22;23049;54.304;8.826;2023-04-03T14:32:28;8.40;99.90
32769;DHT22;23049;54.304;8.826;2023-04-03T14:34:54;8.20;99.90
32769;DHT22;23049;54.304;8.826;2023-04-03T14:37:22;8.60;99.90
32769;DHT22;23049;54.304;8.826;2023-04-03T14:39:48;8.70;99.90
32769;DHT22;23049;54.304;8.826;2023-04-03T14:42:15;8.60;99.90
32769;DHT22;23049;54.304;8.826;2023-04-03T14:44:41;8.50;99.90
32769;DHT22;23049;54.304;8.826;2023-04-03T14:47:10;8.50;99.90
32769;DHT22;23049;54.304;8.826;2023-04-03T14:49:36;8.40;99.90
32769;DHT22;23049;54.304;8.826;2023-04-03T14:52:02;8.20;99.90
32769;DHT22;23049;54.304;8.826;2023-04-03T14:54:28;8.30;99.90
32769;DHT22;23049;54.304;8.826;2023-04-03T14:56:54;8.40;99.90
32769;DHT22;23049;54.304;8.826;2023-04-03T14:59:21;8.40;99.90
32769;DHT22;23049;54.304;8.826;2023-04-03T15:01:47;8.40;99.90
32769;DHT22;23049;54.304;8.826;2023-04-03T15:04:17;8.40;99.90
32769;DHT22;23049;54.304;8.826;2023-04-03T15:06:43;8.50;99.90
32769;DHT22;23049;54.304;8.826;2023-04-03T15:09:19;8.60;99.90
32769;DHT22;23049;54.304;8.826;2023-04-03T15:11:45;8.40;99.90
32769;DHT22;23049;54.304;8.826;2023-04-03T15:14:11;8.40;99.90
32769;DHT22;23049;54.304;8.826;2023-04-03T15:16:36;8.30;99.90
32769;DHT22;23049;54.304;8.826;2023-04-03T15:19:02;8.20;99.90
32769;DHT22;23049;54.304;8.826;2023-04-03T15:21:28;8.00;99.90
32769;DHT22;23049;54.304;8.826;2023-04-03T15:23:53;8.00;99.90
32769;DHT22;23049;54.304;8.826;2023-04-03T15:26:19;8.00;99.90
32769;DHT22;23049;54.304;8.826;2023-04-03T15:28:45;7.90;99.90
32769;DHT22;23049;54.304;8.826;2023-04-03T15:31:11;7.90;99.90
32769;DHT22;23049;54.304;8.826;2023-04-03T15:33:37;8.00;99.90
32769;DHT22;23049;54.304;8.826;2023-04-03T15:36:03;8.00;99.90
32769;DHT22;23049;54.304;8.826;2023-04-03T15:38:29;7.90;99.90
32769;DHT22;23049;54.304;8.826;2023-04-03T15:40:54;7.90;99.90
32769;DHT22;23049;54.304;8.826;2023-04-03T15:43:20;7.90;99.90
32769;DHT22;23049;54.304;8.826;2023-04-03T15:45:46;7.90;99.90
32769;DHT22;23049;54.304;8.826;2023-04-03T15:48:12;7.80;99.90
32769;DHT22;23049;54.304;8.826;2023-04-03T15:50:37;7.70;99.90
32769;DHT22;23049;54.304;8.826;2023-04-03T15:53:03;7.70;99.90
32769;DHT22;23049;54.304;8.826;2023-04-03T15:55:30;7.80;99.90
32769;DHT22;23049;54.304;8.826;2023-04-03T15:57:55;7.70;99.90
32769;DHT22;23049;54.304;8.826;2023-04-03T16:00:21;7.60;99.90
32769;DHT22;23049;54.304;8.826;2023-04-03T16:02:47;7.60;99.90
32769;DHT22;23049;54.304;8.826;2023-04-03T16:05:14;7.50;99.90
32769;DHT22;23049;54.304;8.826;2023-04-03T16:07:40;7.40;99.90
32769;DHT22;23049;54.304;8.826;2023-04-03T16:10:08;7.40;99.90
32769;DHT22;23049;54.304;8.826;2023-04-03T16:12:33;7.40;99.90
32769;DHT22;23049;54.304;8.826;2023-04-03T16:14:59;7.40;99.90
32769;DHT22;23049;54.304;8.826;2023-04-03T16:17:25;7.30;99.90
32769;DHT22;23049;54.304;8.826;2023-04-03T16:19:51;7.30;99.90
32769;DHT22;23049;54.304;8.826;2023-04-03T16:22:17;7.20;99.90
32769;DHT22;23049;54.304;8.826;2023-04-03T16:24:42;7.20;99.90
32769;DHT22;23049;54.304;8.826;2023-04-03T16:27:08;7.10;99.90
32769;DHT22;23049;54.304;8.826;2023-04-03T16:29:33;7.20;99.90
32769;DHT22;23049;54.304;8.826;2023-04-03T16:31:59;7.10;99.90
32769;DHT22;23049;54.304;8.826;2023-04-03T16:34:24;7.00;99.90
32769;DHT22;23049;54.304;8.826;2023-04-03T16:36:51;7.00;99.90
32769;DHT22;23049;54.304;8.826;2023-04-03T16:39:17;6.90;99.90
32769;DHT22;23049;54.304;8.826;2023-04-03T16:41:43;6.80;99.90
32769;DHT22;23049;54.304;8.826;2023-04-03T16:44:08;6.80;99.90
32769;DHT22;23049;54.304;8.826;2023-04-03T16:46:34;6.80;99.90
32769;DHT22;23049;54.304;8.826;2023-04-03T16:49:00;6.70;99.90
32769;DHT22;23049;54.304;8.826;2023-04-03T16:51:25;6.70;99.90
32769;DHT22;23049;54.304;8.826;2023-04-03T16:53:51;6.70;99.90
32769;DHT22;23049;54.304;8.826;2023-04-03T16:56:17;6.60;99.90
32769;DHT22;23049;54.304;8.826;2023-04-03T16:58:42;6.50;99.90
32769;DHT22;23049;54.304;8.826;2023-04-03T17:01:10;6.40;99.90
32769;DHT22;23049;54.304;8.826;2023-04-03T17:03:36;6.40;99.90
32769;DHT22;23049;54.304;8.826;2023-04-03T17:06:02;6.30;99.90
32769;DHT22;23049;54.304;8.826;2023-04-03T17:08:27;6.30;99.90
32769;DHT22;23049;54.304;8.826;2023-04-03T17:10:53;6.20;99.90
32769;DHT22;23049;54.304;8.826;2023-04-03T17:13:20;6.10;99.90
32769;DHT22;23049;54.304;8.826;2023-04-03T17:15:45;6.10;99.90
32769;DHT22;23049;54.304;8.826;2023-04-03T17:18:11;5.90;99.90
32769;DHT22;23049;54.304;8.826;2023-04-03T17:20:36;5.90;99.90
32769;DHT22;23049;54.304;8.826;2023-04-03T17:23:04;5.90;99.90